메인 페이지
METAR-TAF:

METAR-TAF

공항 :

군산, 대한민국

군산공항

위도: 35-55N, 경도: 126-37E, 고도: 10m

현재 날씨관측

예보는 36분 전, 10:56시(UTC)에 발표되었습니다.
9kt
온도 2°C
습도 55%
기압 1023 hPa
시정: 16.1km
고도 10000ft 상공 구름 많음

METAR: RKJK 201056Z 01009KT 10SM BKN100 02/M06 A3021 RMK A02A SLPNO WND DATA ESTMD ALSTG ESTMD $

시각: 20:32 (11:32 UTC)

예보

예보는 1 시간 6분 전, 10:26시(UTC)에 발표되었습니다.
예보 대상 시간: 20일 10시부터 21일 13시까지 (UTC)
북북동9kt
시정 10km 이상
고도 10000ft 상공 구름 보통
전환 중
20일 22시부터 20일 23시까지 (UTC)
북북서9kt
시정 10km 이상
고도 20000ft 상공 구름 보통

TAF: RKJK 201026Z 2010/2113 02009KT 9999 SCT100 QNH3019INS BECMG 2022/2023 33009KT 9999 SCT200 QNH3022INS TX07/2104Z TNM02/2018Z

4,000개 이상의 공항 관측 자료 및 예보 (METAR 및 TAF 보고).

지도상에서 검색 가능한 기상관측소가 노란 점과 빨간 점으로 표시되어 있습니다.

기상관측소 명을 보려면 표시 위로 마우스를 이동하세요.

날씨 관측과 예보를 보려면 클릭하세요.

지도 변경 : 확대하려면 엑스 표시가 있는 녹색 버튼, 축소하려면 빼기 표시가 있는 녹색 버튼, 다음 페이지의 지도를 보려면 녹색 화살표를 클릭하세요.


METAR-TAF: